createdAt,value
2019-02-15T00:00:54.219Z,95618.78
2019-02-15T00:03:27.365Z,95612.31
2019-02-15T00:06:00.664Z,95612.28
2019-02-15T00:08:33.773Z,95622.45
2019-02-15T00:11:06.690Z,95616.97
2019-02-15T00:13:40.023Z,95618.75
2019-02-15T00:16:13.578Z,95620.67
2019-02-15T00:18:56.501Z,95617.91
2019-02-15T00:21:32.426Z,95623.55
2019-02-15T00:24:05.618Z,95619.99
2019-02-15T00:26:38.439Z,95618.02
2019-02-15T00:29:11.493Z,95617.63
2019-02-15T00:31:44.483Z,95613.75
2019-02-15T00:34:17.734Z,95615.91
2019-02-15T00:36:50.698Z,95617.84
2019-02-15T00:39:23.662Z,95613.66
2019-02-15T00:41:56.938Z,95615.28
2019-02-15T00:44:29.995Z,95610.25
2019-02-15T00:47:30.570Z,95608.80
2019-02-15T00:50:15.254Z,95607.38
2019-02-15T00:53:05.499Z,95600.25
2019-02-15T00:55:51.791Z,95602.19
2019-02-15T00:58:39.447Z,95600.39
2019-02-15T01:01:40.438Z,95602.34
2019-02-15T01:04:38.308Z,95600.26
2019-02-15T01:07:30.153Z,95594.27
2019-02-15T01:10:16.861Z,95592.81
2019-02-15T01:13:03.453Z,95589.41
2019-02-15T01:15:36.251Z,95582.87
2019-02-15T01:18:10.180Z,95586.90
2019-02-15T01:20:43.112Z,95583.87
2019-02-15T01:23:16.098Z,95586.59
2019-02-15T01:26:11.875Z,95584.48
2019-02-15T01:29:11.548Z,95579.01
2019-02-15T01:32:18.417Z,95580.78
2019-02-15T01:35:04.704Z,95580.95
2019-02-15T01:37:45.262Z,95585.80
2019-02-15T01:40:34.315Z,95578.84
2019-02-15T01:43:25.322Z,95584.80
2019-02-15T01:46:23.404Z,95584.80
2019-02-15T01:48:56.669Z,95586.19
2019-02-15T01:51:29.720Z,95581.37
2019-02-15T01:54:02.522Z,95582.04
2019-02-15T01:56:35.389Z,95584.64
2019-02-15T01:59:08.318Z,95581.09
2019-02-15T02:01:43.021Z,95581.10
2019-02-15T02:04:15.984Z,95580.61
2019-02-15T02:06:48.819Z,95586.42
2019-02-15T02:09:21.738Z,95581.92
2019-02-15T02:11:54.650Z,95581.76
2019-02-15T02:14:27.568Z,95576.78
2019-02-15T02:17:00.441Z,95567.88
2019-02-15T02:19:33.494Z,95569.65
2019-02-15T02:22:08.015Z,95570.60
2019-02-15T02:24:40.983Z,95569.47
2019-02-15T02:27:15.373Z,95564.48
2019-02-15T02:29:48.308Z,95568.97
2019-02-15T02:32:21.272Z,95572.72
2019-02-15T02:34:54.107Z,95571.56
2019-02-15T02:37:27.038Z,95571.09
2019-02-15T02:39:59.864Z,95567.69
2019-02-15T02:42:32.844Z,95568.66
2019-02-15T02:45:06.090Z,95565.59
2019-02-15T02:47:39.191Z,95572.05
2019-02-15T02:50:12.255Z,95564.14
2019-02-15T02:52:45.241Z,95559.63
2019-02-15T02:55:18.218Z,95564.47
2019-02-15T02:57:51.301Z,95564.47
2019-02-15T03:00:33.200Z,95563.35
2019-02-15T03:02:58.867Z,95566.41
2019-02-15T03:05:32.168Z,95568.38
2019-02-15T03:08:06.583Z,95570.95
2019-02-15T03:10:39.381Z,95568.38
2019-02-15T03:13:12.198Z,95572.72
2019-02-15T03:15:45.209Z,95576.26
2019-02-15T03:18:18.058Z,95574.95
2019-02-15T03:20:50.929Z,95575.11
2019-02-15T03:23:24.080Z,95575.28
2019-02-15T03:25:56.907Z,95574.98
2019-02-15T03:28:30.168Z,95576.76
2019-02-15T03:31:03.088Z,95578.54
2019-02-15T03:33:36.042Z,95571.91
2019-02-15T03:36:11.091Z,95574.30
2019-02-15T03:38:58.249Z,95572.21
2019-02-15T03:41:33.411Z,95577.72
2019-02-15T03:44:06.562Z,95580.16
2019-02-15T03:46:39.403Z,95579.18
2019-02-15T03:49:12.250Z,95577.70
2019-02-15T03:51:45.093Z,95579.30
2019-02-15T03:54:19.233Z,95580.61
2019-02-15T03:56:52.283Z,95576.07
2019-02-15T03:59:25.432Z,95581.91
2019-02-15T04:01:58.297Z,95584.67
2019-02-15T04:04:31.545Z,95585.63
2019-02-15T04:07:04.462Z,95588.23
2019-02-15T04:09:37.362Z,95588.52
2019-02-15T04:12:10.432Z,95589.81
2019-02-15T04:14:43.385Z,95594.98
2019-02-15T04:17:16.477Z,95594.80
2019-02-15T04:19:49.432Z,95590.61
2019-02-15T04:22:22.243Z,95597.56
2019-02-15T04:24:55.183Z,95599.69
2019-02-15T04:27:28.252Z,95596.30
2019-02-15T04:30:01.324Z,95597.10
2019-02-15T04:32:34.270Z,95591.12
2019-02-15T04:35:07.420Z,95596.31
2019-02-15T04:37:40.185Z,95600.20
2019-02-15T04:40:13.155Z,95601.49
2019-02-15T04:42:45.923Z,95605.38
2019-02-15T04:45:18.811Z,95606.84
2019-02-15T04:47:51.809Z,95609.59
2019-02-15T04:50:24.815Z,95616.54
2019-02-15T04:52:57.741Z,95617.17
2019-02-15T04:55:30.627Z,95617.17
2019-02-15T04:58:03.488Z,95618.97
2019-02-15T05:00:36.401Z,95623.00
2019-02-15T05:03:09.290Z,95627.02
2019-02-15T05:05:42.392Z,95627.84
2019-02-15T05:08:15.483Z,95629.95
2019-02-15T05:10:48.453Z,95632.43
2019-02-15T05:13:21.524Z,95639.10
2019-02-15T05:15:54.636Z,95646.70
2019-02-15T05:18:27.821Z,95648.34
2019-02-15T05:21:01.081Z,95646.47
2019-02-15T05:23:34.112Z,95650.67
2019-02-15T05:26:07.340Z,95654.42
2019-02-15T05:28:40.592Z,95657.16
2019-02-15T05:31:33.878Z,95660.41
2019-02-15T05:34:06.953Z,95665.84
2019-02-15T05:36:40.019Z,95674.64
2019-02-15T05:39:13.443Z,95681.27
2019-02-15T05:41:46.512Z,95684.39
2019-02-15T05:44:20.927Z,95697.36
2019-02-15T05:46:53.974Z,95703.36
2019-02-15T05:49:27.527Z,95709.69
2019-02-15T05:52:00.480Z,95710.04
2019-02-15T05:54:33.420Z,95721.55
2019-02-15T05:57:06.531Z,95724.59
2019-02-15T05:59:41.278Z,95723.45
2019-02-15T06:02:15.687Z,95725.75
2019-02-15T06:04:48.694Z,95731.88
2019-02-15T06:07:22.079Z,95737.05
2019-02-15T06:09:56.264Z,95734.16
2019-02-15T06:12:29.729Z,95740.41
2019-02-15T06:15:02.881Z,95737.36
2019-02-15T06:17:36.761Z,95745.44
2019-02-15T06:20:10.389Z,95752.41
2019-02-15T06:22:43.623Z,95756.12
2019-02-15T06:25:16.820Z,95772.30
2019-02-15T06:27:50.035Z,95770.19
2019-02-15T06:30:23.235Z,95778.27
2019-02-15T06:32:56.316Z,95777.45
2019-02-15T06:35:29.607Z,95776.67
2019-02-15T06:38:03.013Z,95776.34
2019-02-15T06:40:36.022Z,95778.94
2019-02-15T06:43:09.099Z,95784.25
2019-02-15T06:45:42.186Z,95780.84
2019-02-15T06:48:15.227Z,95778.91
2019-02-15T06:50:47.983Z,95771.77
2019-02-15T06:53:22.463Z,95758.16
2019-02-15T06:55:55.284Z,95755.05
2019-02-15T06:58:28.581Z,95749.97
2019-02-15T07:01:26.219Z,95762.22
2019-02-15T07:04:18.781Z,95777.41
2019-02-15T07:06:52.028Z,95791.36
2019-02-15T07:09:25.351Z,95797.34
2019-02-15T07:11:58.567Z,95798.49
2019-02-15T07:14:32.198Z,95796.38
2019-02-15T07:17:05.509Z,95800.59
2019-02-15T07:19:38.493Z,95799.24
2019-02-15T07:22:11.729Z,95793.67
2019-02-15T07:24:47.190Z,95788.88
2019-02-15T07:27:20.053Z,95774.11
2019-02-15T07:29:53.222Z,95780.38
2019-02-15T07:35:20.133Z,95781.50
2019-02-15T07:37:53.218Z,95789.84
2019-02-15T07:40:26.728Z,95785.59
2019-02-15T07:42:59.864Z,95779.52
2019-02-15T07:45:37.047Z,95784.38
2019-02-15T07:48:07.932Z,95785.05
2019-02-15T07:50:41.122Z,95785.37
2019-02-15T07:53:15.344Z,95778.74
2019-02-15T07:55:48.602Z,95778.09
2019-02-15T07:58:21.544Z,95783.09
2019-02-15T08:00:54.883Z,95785.94
2019-02-15T08:03:27.987Z,95785.76
2019-02-15T08:06:00.884Z,95789.45
2019-02-15T08:08:33.814Z,95794.65
2019-02-15T08:11:06.658Z,95799.78
2019-02-15T08:13:39.610Z,95796.53
2019-02-15T08:16:12.580Z,95806.53
2019-02-15T08:18:47.100Z,95800.78
2019-02-15T08:21:20.374Z,95789.04
2019-02-15T08:23:53.413Z,95792.97
2019-02-15T08:26:26.225Z,95798.02
2019-02-15T08:28:59.009Z,95800.63
2019-02-15T08:31:31.809Z,95797.64
2019-02-15T08:34:05.023Z,95804.00
2019-02-15T08:36:38.151Z,95808.95
2019-02-15T08:39:11.232Z,95806.03
2019-02-15T08:42:00.244Z,95808.78
2019-02-15T08:44:18.629Z,95815.25
2019-02-15T08:46:51.552Z,95816.05
2019-02-15T08:49:24.636Z,95813.53
2019-02-15T08:51:57.419Z,95808.82
2019-02-15T08:54:30.178Z,95810.19
2019-02-15T08:57:02.992Z,95813.36
2019-02-15T08:59:36.377Z,95814.68
2019-02-15T09:02:28.195Z,95813.13
2019-02-15T09:05:02.168Z,95822.38
2019-02-15T09:07:35.832Z,95826.19
2019-02-15T09:10:11.115Z,95825.87
2019-02-15T09:12:44.331Z,95830.83
2019-02-15T09:15:20.516Z,95831.14
2019-02-15T09:17:54.833Z,95828.38
2019-02-15T09:20:28.173Z,95814.84
2019-02-15T09:23:01.001Z,95822.82
2019-02-15T09:25:34.180Z,95822.33
2019-02-15T09:28:22.685Z,95820.27
2019-02-15T09:30:55.965Z,95829.47
2019-02-15T09:33:28.947Z,95828.09
2019-02-15T09:38:55.421Z,95826.02
2019-02-15T09:41:28.088Z,95835.75
2019-02-15T09:44:01.165Z,95831.63
2019-02-15T09:46:34.095Z,95832.13
2019-02-15T09:49:07.259Z,95828.68
2019-02-15T09:51:40.288Z,95823.46
2019-02-15T09:54:13.287Z,95833.15
2019-02-15T09:56:46.613Z,95806.41
2019-02-15T09:59:19.500Z,95815.42
2019-02-15T10:01:52.529Z,95815.45
2019-02-15T10:04:25.413Z,95819.83
2019-02-15T10:06:58.249Z,95808.47
2019-02-15T10:09:31.125Z,95815.37
2019-02-15T10:12:04.286Z,95806.14
2019-02-15T10:14:37.502Z,95802.05
2019-02-15T10:17:10.276Z,95786.18
2019-02-15T10:19:43.758Z,95806.69
2019-02-15T10:22:16.897Z,95818.16
2019-02-15T10:24:50.078Z,95811.80
2019-02-15T10:27:23.153Z,95814.23
2019-02-15T10:29:56.200Z,95816.81
2019-02-15T10:32:29.338Z,95826.55
2019-02-15T10:35:02.992Z,95819.71
2019-02-15T10:37:36.171Z,95830.84
2019-02-15T10:40:09.504Z,95831.23
2019-02-15T10:42:42.710Z,95837.41
2019-02-15T10:45:16.218Z,95831.69
2019-02-15T10:47:49.180Z,95834.34
2019-02-15T10:50:22.172Z,95826.89
2019-02-15T10:52:55.351Z,95832.17
2019-02-15T10:55:28.589Z,95839.52
2019-02-15T10:58:01.804Z,95838.98
2019-02-15T11:00:34.706Z,95839.17
2019-02-15T11:03:07.779Z,95844.75
2019-02-15T11:08:45.514Z,95846.80
2019-02-15T11:11:18.495Z,95846.28
2019-02-15T11:13:51.311Z,95852.91
2019-02-15T11:16:24.812Z,95852.93
2019-02-15T11:18:57.779Z,95849.33
2019-02-15T11:21:30.775Z,95844.09
2019-02-15T11:24:03.681Z,95841.56
2019-02-15T11:26:36.680Z,95849.00
2019-02-15T11:29:09.550Z,95844.12
2019-02-15T11:31:42.686Z,95850.74
2019-02-15T11:34:15.480Z,95849.13
2019-02-15T11:36:48.831Z,95845.87
2019-02-15T11:39:21.952Z,95847.73
2019-02-15T11:41:55.124Z,95839.91
2019-02-15T11:44:28.101Z,95845.83
2019-02-15T11:47:01.279Z,95843.42
2019-02-15T11:49:34.456Z,95856.41
2019-02-15T11:52:07.667Z,95860.00
2019-02-15T11:54:40.511Z,95859.34
2019-02-15T11:57:13.306Z,95860.23
2019-02-15T11:59:46.721Z,95870.45
2019-02-15T12:02:20.058Z,95866.34
2019-02-15T12:04:53.152Z,95868.31
2019-02-15T12:07:26.616Z,95871.19
2019-02-15T12:09:59.337Z,95869.59
2019-02-15T12:12:32.324Z,95861.59
2019-02-15T12:15:05.427Z,95864.82
2019-02-15T12:17:38.488Z,95860.52
2019-02-15T12:20:12.149Z,95864.60
2019-02-15T12:22:45.904Z,95870.64
2019-02-15T12:25:19.026Z,95858.61
2019-02-15T12:27:52.080Z,95860.45
2019-02-15T12:30:25.974Z,95864.09
2019-02-15T12:32:59.250Z,95869.89
2019-02-15T12:35:32.188Z,95866.36
2019-02-15T12:38:05.206Z,95868.99
2019-02-15T12:40:38.239Z,95863.19
2019-02-15T12:43:11.613Z,95865.10
2019-02-15T12:45:44.539Z,95872.38
2019-02-15T12:48:17.550Z,95865.34
2019-02-15T12:50:50.494Z,95860.17
2019-02-15T12:53:23.321Z,95858.02
2019-02-15T12:55:56.346Z,95860.70
2019-02-15T12:58:29.247Z,95863.02
2019-02-15T13:01:02.271Z,95859.95
2019-02-15T13:03:35.353Z,95854.41
2019-02-15T13:06:08.690Z,95851.97
2019-02-15T13:08:41.919Z,95857.46
2019-02-15T13:11:15.398Z,95859.76
2019-02-15T13:13:51.710Z,95858.45
2019-02-15T13:16:25.433Z,95854.58
2019-02-15T13:18:58.697Z,95847.47
2019-02-15T13:21:31.927Z,95855.36
2019-02-15T13:24:05.051Z,95857.44
2019-02-15T13:26:38.414Z,95854.50
2019-02-15T13:29:11.533Z,95860.92
2019-02-15T13:31:44.659Z,95855.90
2019-02-15T13:34:17.564Z,95860.50
2019-02-15T13:36:50.396Z,95860.66
2019-02-15T13:39:31.241Z,95861.13
2019-02-15T13:42:04.202Z,95861.76
2019-02-15T13:44:37.172Z,95860.28
2019-02-15T13:47:12.289Z,95861.33
2019-02-15T13:49:45.569Z,95863.02
2019-02-15T13:52:18.722Z,95862.61
2019-02-15T13:54:55.051Z,95853.69
2019-02-15T13:57:28.130Z,95867.14
2019-02-15T14:00:00.968Z,95860.52
2019-02-15T14:02:33.979Z,95866.48
2019-02-15T14:05:09.663Z,95865.53
2019-02-15T14:07:42.726Z,95866.58
2019-02-15T14:10:16.529Z,95868.22
2019-02-15T14:12:49.714Z,95865.20
2019-02-15T14:15:23.552Z,95866.98
2019-02-15T14:17:57.312Z,95861.51
2019-02-15T14:20:31.167Z,95864.58
2019-02-15T14:23:04.900Z,95855.34
2019-02-15T14:25:38.304Z,95857.11
2019-02-15T14:28:11.761Z,95849.16
2019-02-15T14:30:44.982Z,95848.24
2019-02-15T14:33:18.195Z,95852.01
2019-02-15T14:35:51.422Z,95849.45
2019-02-15T14:38:25.260Z,95846.92
2019-02-15T14:40:58.428Z,95841.90
2019-02-15T14:43:32.136Z,95847.73
2019-02-15T14:46:05.318Z,95861.50
2019-02-15T14:48:39.227Z,95861.52
2019-02-15T14:51:12.648Z,95862.97
2019-02-15T14:53:45.907Z,95867.50
2019-02-15T14:56:19.963Z,95869.97
2019-02-15T14:58:54.680Z,95863.18
2019-02-15T15:01:27.882Z,95866.41
2019-02-15T15:04:01.261Z,95868.52
2019-02-15T15:06:34.603Z,95860.59
2019-02-15T15:09:10.024Z,95864.63
2019-02-15T15:11:48.674Z,95863.19
2019-02-15T15:14:30.166Z,95862.85
2019-02-15T15:17:12.073Z,95863.99
2019-02-15T15:19:58.158Z,95866.91
2019-02-15T15:22:41.978Z,95855.24
2019-02-15T15:25:26.185Z,95861.57
2019-02-15T15:28:06.868Z,95863.66
2019-02-15T15:30:48.195Z,95855.09
2019-02-15T15:33:27.669Z,95859.93
2019-02-15T15:36:04.774Z,95866.06
2019-02-15T15:38:43.412Z,95870.28
2019-02-15T15:41:25.782Z,95873.85
2019-02-15T15:44:08.665Z,95883.38
2019-02-15T15:46:49.443Z,95881.77
2019-02-15T15:49:31.392Z,95882.42
2019-02-15T15:52:19.179Z,95885.34
2019-02-15T15:55:06.672Z,95892.96
2019-02-15T15:57:45.629Z,95893.92
2019-02-15T16:00:22.721Z,95898.13
2019-02-15T16:03:01.816Z,95905.73
2019-02-15T16:05:43.090Z,95909.59
2019-02-15T16:08:23.296Z,95910.88
2019-02-15T16:11:02.618Z,95912.50
2019-02-15T16:13:46.888Z,95908.77
2019-02-15T16:16:29.095Z,95915.23
2019-02-15T16:19:09.741Z,95919.09
2019-02-15T16:21:47.246Z,95925.22
2019-02-15T16:24:28.466Z,95926.67
2019-02-15T16:27:09.422Z,95923.59
2019-02-15T16:29:51.329Z,95934.06
2019-02-15T16:32:31.659Z,95931.95
2019-02-15T16:35:09.736Z,95936.48
2019-02-15T16:37:53.609Z,95941.02
2019-02-15T16:40:36.137Z,95947.33
2019-02-15T16:43:11.163Z,95946.48
2019-02-15T16:45:55.795Z,95953.46
2019-02-15T16:48:42.038Z,95953.14
2019-02-15T16:51:23.601Z,95955.05
2019-02-15T16:54:03.787Z,95962.16
2019-02-15T16:56:49.530Z,95963.78
2019-02-15T16:59:32.452Z,95972.38
2019-02-15T17:02:11.319Z,95971.24
2019-02-15T17:04:53.034Z,95975.63
2019-02-15T17:07:34.784Z,95980.18
2019-02-15T17:10:15.442Z,95986.65
2019-02-15T17:12:56.598Z,95985.03
2019-02-15T17:15:38.353Z,95988.09
2019-02-15T17:18:17.759Z,95994.27
2019-02-15T17:20:58.430Z,95994.11
2019-02-15T17:23:41.682Z,96001.23
2019-02-15T17:26:26.182Z,96001.22
2019-02-15T17:29:05.727Z,96009.44
2019-02-15T17:31:51.319Z,96009.26
2019-02-15T17:34:30.924Z,96009.14
2019-02-15T17:37:11.875Z,96007.20
2019-02-15T17:39:50.480Z,96017.85
2019-02-15T17:42:29.630Z,96023.00
2019-02-15T17:45:08.210Z,96026.84
2019-02-15T17:47:50.887Z,96023.45
2019-02-15T17:50:33.400Z,96018.92
2019-02-15T17:53:11.517Z,96019.28
2019-02-15T17:55:52.288Z,96015.72
2019-02-15T17:58:39.792Z,96013.77
2019-02-15T18:01:18.996Z,96025.75
2019-02-15T18:04:01.951Z,96024.13
2019-02-15T18:06:46.623Z,96023.34
2019-02-15T18:09:30.038Z,96022.98
2019-02-15T18:12:12.049Z,96021.71
2019-02-15T18:14:52.575Z,96023.03
2019-02-15T18:17:32.976Z,96022.27
2019-02-15T18:20:11.353Z,96021.47
2019-02-15T18:22:51.414Z,96029.34
2019-02-15T18:25:31.053Z,96032.05
2019-02-15T18:28:11.678Z,96025.12
2019-02-15T18:30:54.455Z,96029.83
2019-02-15T18:33:42.038Z,96025.16
2019-02-15T18:36:24.101Z,96020.70
2019-02-15T18:39:05.608Z,96022.50
2019-02-15T18:41:45.076Z,96015.20
2019-02-15T18:44:27.949Z,96027.50
2019-02-15T18:47:06.479Z,96029.73
2019-02-15T18:49:56.391Z,96028.57
2019-02-15T18:52:38.216Z,96037.78
2019-02-15T18:55:13.138Z,96034.89
2019-02-15T18:57:51.183Z,96035.86
2019-02-15T19:00:43.748Z,96040.72
2019-02-15T19:03:31.181Z,96042.83
2019-02-15T19:06:10.883Z,96043.75
2019-02-15T19:08:50.258Z,96041.00
2019-02-15T19:11:31.098Z,96035.69
2019-02-15T19:14:13.807Z,96036.52
2019-02-15T19:16:57.267Z,96032.52
2019-02-15T19:19:38.299Z,96026.86
2019-02-15T19:22:23.473Z,96025.60
2019-02-15T19:25:00.879Z,96029.78
2019-02-15T19:28:02.049Z,96032.72
2019-02-15T19:30:39.046Z,96036.27
2019-02-15T19:33:21.384Z,96043.89
2019-02-15T19:36:07.254Z,96036.11
2019-02-15T19:38:43.266Z,96037.39
2019-02-15T19:41:22.342Z,96042.90
2019-02-15T19:44:03.846Z,96045.94
2019-02-15T19:46:44.657Z,96044.96
2019-02-15T19:49:38.793Z,96042.84
2019-02-15T19:52:17.498Z,96038.32
2019-02-15T19:55:10.143Z,96041.67
2019-02-15T19:57:43.344Z,96043.80
2019-02-15T20:00:19.257Z,96045.09
2019-02-15T20:02:52.903Z,96037.17
2019-02-15T20:05:26.256Z,96042.98
2019-02-15T20:07:59.611Z,96038.96
2019-02-15T20:10:33.089Z,96035.40
2019-02-15T20:13:06.509Z,96033.80
2019-02-15T20:15:39.823Z,96023.13
2019-02-15T20:18:13.132Z,96027.81
2019-02-15T20:20:46.275Z,96028.77
2019-02-15T20:23:19.746Z,96028.93
2019-02-15T20:25:53.360Z,96027.84
2019-02-15T20:28:26.787Z,96037.52
2019-02-15T20:31:02.659Z,96042.04
2019-02-15T20:33:36.010Z,96038.67
2019-02-15T20:36:09.394Z,96044.78
2019-02-15T20:38:42.880Z,96043.34
2019-02-15T20:41:16.274Z,96043.50
2019-02-15T20:43:52.072Z,96042.33
2019-02-15T20:46:25.242Z,96040.55
2019-02-15T20:49:04.713Z,96041.03
2019-02-15T20:51:33.020Z,96042.65
2019-02-15T20:54:05.919Z,96041.66
2019-02-15T20:56:39.243Z,96045.08
2019-02-15T20:59:12.586Z,96045.30
2019-02-15T21:01:47.490Z,96052.08
2019-02-15T21:04:21.088Z,96049.12
2019-02-15T21:06:54.519Z,96051.53
2019-02-15T21:09:28.296Z,96043.12
2019-02-15T21:12:01.613Z,96049.27
2019-02-15T21:14:35.483Z,96050.07
2019-02-15T21:17:08.765Z,96040.69
2019-02-15T21:19:41.552Z,96042.80
2019-02-15T21:22:14.925Z,96043.45
2019-02-15T21:24:48.303Z,96041.50
2019-02-15T21:27:21.578Z,96040.20
2019-02-15T21:29:54.507Z,96053.47
2019-02-15T21:32:27.514Z,96056.52
2019-02-15T21:35:00.947Z,96058.45
2019-02-15T21:37:34.070Z,96058.11
2019-02-15T21:40:09.694Z,96057.47
2019-02-15T21:42:43.073Z,96056.81
2019-02-15T21:45:16.384Z,96052.91
2019-02-15T21:47:49.585Z,96055.03
2019-02-15T21:50:22.776Z,96049.72
2019-02-15T21:52:55.792Z,96052.47
2019-02-15T21:55:28.869Z,96060.00
2019-02-15T21:58:10.796Z,96056.78
2019-02-15T22:00:52.305Z,96052.81
2019-02-15T22:03:27.807Z,96045.49
2019-02-15T22:06:07.291Z,96048.94
2019-02-15T22:08:48.574Z,96055.03
2019-02-15T22:11:30.165Z,96052.64
2019-02-15T22:14:15.750Z,96058.38
2019-02-15T22:16:55.548Z,96053.37
2019-02-15T22:19:34.715Z,96060.30
2019-02-15T22:22:15.816Z,96062.84
2019-02-15T22:24:59.051Z,96063.66
2019-02-15T22:27:38.572Z,96066.00
2019-02-15T22:30:16.935Z,96065.32
2019-02-15T22:32:50.200Z,96064.84
2019-02-15T22:35:30.544Z,96060.28
2019-02-15T22:38:06.120Z,96066.08
2019-02-15T22:40:42.757Z,96060.39
2019-02-15T22:43:23.271Z,96057.54
2019-02-15T22:46:05.044Z,96053.50
2019-02-15T22:48:43.939Z,96057.88
2019-02-15T22:51:18.048Z,96055.23
2019-02-15T22:54:02.447Z,96058.95
2019-02-15T22:56:43.567Z,96067.52
2019-02-15T22:59:24.433Z,96061.78
2019-02-15T23:02:01.838Z,96054.64
2019-02-15T23:04:44.250Z,96060.88
2019-02-15T23:07:23.679Z,96061.50
2019-02-15T23:10:07.112Z,96059.73
2019-02-15T23:12:47.393Z,96067.13
2019-02-15T23:15:27.260Z,96057.19
2019-02-15T23:18:06.878Z,96053.94
2019-02-15T23:20:45.544Z,96052.11
2019-02-15T23:23:26.640Z,96057.06
2019-02-15T23:26:06.787Z,96061.67
2019-02-15T23:28:43.220Z,96059.39
2019-02-15T23:31:17.882Z,96056.87
2019-02-15T23:33:50.908Z,96060.88
2019-02-15T23:36:23.586Z,96061.55
2019-02-15T23:38:56.488Z,96053.84
2019-02-15T23:41:29.388Z,96054.50
2019-02-15T23:44:02.316Z,96056.12
2019-02-15T23:46:35.525Z,96050.34
2019-02-15T23:49:08.577Z,96052.47
2019-02-15T23:51:41.596Z,96050.08
2019-02-15T23:54:14.934Z,96058.18
2019-02-15T23:56:48.105Z,96061.25
2019-02-15T23:59:21.318Z,96054.18
